sensor_id;sensor_type;location;lat;lon;timestamp;pressure;altitude;pressure_sealevel;temperature;humidity
68366;BME280;55283;51.466;5.478;2023-01-28T00:00:56;102725.53;;;19.13;42.71
68366;BME280;55283;51.466;5.478;2023-01-28T00:03:22;102729.13;;;19.13;42.85
68366;BME280;55283;51.466;5.478;2023-01-28T00:05:47;102725.13;;;19.11;42.84
68366;BME280;55283;51.466;5.478;2023-01-28T00:08:14;102721.53;;;19.10;42.60
68366;BME280;55283;51.466;5.478;2023-01-28T00:10:41;102729.13;;;19.10;42.86
68366;BME280;55283;51.466;5.478;2023-01-28T00:13:10;102721.09;;;19.08;42.66
68366;BME280;55283;51.466;5.478;2023-01-28T00:15:36;102725.91;;;19.08;42.68
68366;BME280;55283;51.466;5.478;2023-01-28T00:18:02;102733.91;;;19.09;42.74
68366;BME280;55283;51.466;5.478;2023-01-28T00:20:28;102718.72;;;19.10;42.86
68366;BME280;55283;51.466;5.478;2023-01-28T00:22:55;102729.91;;;19.10;42.65
68366;BME280;55283;51.466;5.478;2023-01-28T00:25:20;102728.31;;;19.09;42.86
68366;BME280;55283;51.466;5.478;2023-01-28T00:27:45;102726.31;;;19.10;43.00
68366;BME280;55283;51.466;5.478;2023-01-28T00:30:11;102729.91;;;19.10;42.74
68366;BME280;55283;51.466;5.478;2023-01-28T00:32:37;102725.13;;;19.11;42.79
68366;BME280;55283;51.466;5.478;2023-01-28T00:35:03;102729.53;;;19.12;42.86
68366;BME280;55283;51.466;5.478;2023-01-28T00:37:29;102724.75;;;19.12;42.80
68366;BME280;55283;51.466;5.478;2023-01-28T00:39:56;102741.13;;;19.14;42.87
68366;BME280;55283;51.466;5.478;2023-01-28T00:42:22;102736.34;;;19.14;42.80
68366;BME280;55283;51.466;5.478;2023-01-28T00:44:52;102730.75;;;19.14;42.84
68366;BME280;55283;51.466;5.478;2023-01-28T00:47:17;102745.53;;;19.15;42.80
68366;BME280;55283;51.466;5.478;2023-01-28T00:49:43;102731.56;;;19.15;42.75
68366;BME280;55283;51.466;5.478;2023-01-28T00:52:09;102730.34;;;19.12;42.88
68366;BME280;55283;51.466;5.478;2023-01-28T00:54:34;102751.94;;;19.15;42.79
68366;BME280;55283;51.466;5.478;2023-01-28T00:57:01;102748.72;;;19.13;42.73
68366;BME280;55283;51.466;5.478;2023-01-28T00:59:27;102750.34;;;19.14;42.80
68366;BME280;55283;51.466;5.478;2023-01-28T01:01:54;102751.50;;;19.13;42.71
68366;BME280;55283;51.466;5.478;2023-01-28T01:04:37;102753.50;;;19.13;42.66
68366;BME280;55283;51.466;5.478;2023-01-28T01:07:03;102758.28;;;19.12;42.71
68366;BME280;55283;51.466;5.478;2023-01-28T01:09:29;102748.28;;;19.11;42.81
68366;BME280;55283;51.466;5.478;2023-01-28T01:11:55;102755.50;;;19.12;42.81
68366;BME280;55283;51.466;5.478;2023-01-28T01:14:21;102747.53;;;19.14;42.92
68366;BME280;55283;51.466;5.478;2023-01-28T01:16:48;102743.91;;;19.14;42.72
68366;BME280;55283;51.466;5.478;2023-01-28T01:19:15;102748.72;;;19.13;42.77
68366;BME280;55283;51.466;5.478;2023-01-28T01:21:43;102751.91;;;19.12;42.81
68366;BME280;55283;51.466;5.478;2023-01-28T01:24:14;102746.31;;;19.12;42.81
68366;BME280;55283;51.466;5.478;2023-01-28T01:26:40;102751.06;;;19.11;42.85
68366;BME280;55283;51.466;5.478;2023-01-28T01:29:06;102753.88;;;19.11;42.85
68366;BME280;55283;51.466;5.478;2023-01-28T01:31:33;102758.66;;;19.11;42.85
68366;BME280;55283;51.466;5.478;2023-01-28T01:33:59;102747.88;;;19.09;42.88
68366;BME280;55283;51.466;5.478;2023-01-28T01:36:25;102741.53;;;19.12;42.90
68366;BME280;55283;51.466;5.478;2023-01-28T01:38:52;102747.13;;;19.16;42.76
68366;BME280;55283;51.466;5.478;2023-01-28T01:41:30;102744.34;;;19.16;43.05
68366;BME280;55283;51.466;5.478;2023-01-28T01:43:57;102729.16;;;19.17;42.82
68366;BME280;55283;51.466;5.478;2023-01-28T01:46:37;102745.13;;;19.16;42.78
68366;BME280;55283;51.466;5.478;2023-01-28T01:49:20;102749.56;;;19.17;42.84
68366;BME280;55283;51.466;5.478;2023-01-28T01:51:56;102748.72;;;19.17;42.88
68366;BME280;55283;51.466;5.478;2023-01-28T01:54:27;102745.94;;;19.17;42.81
68366;BME280;55283;51.466;5.478;2023-01-28T01:56:55;102751.94;;;19.15;42.89
68366;BME280;55283;51.466;5.478;2023-01-28T01:59:27;102749.13;;;19.15;42.95
68366;BME280;55283;51.466;5.478;2023-01-28T02:01:54;102742.75;;;19.15;42.99
68366;BME280;55283;51.466;5.478;2023-01-28T02:04:41;102751.94;;;19.15;42.98
68366;BME280;55283;51.466;5.478;2023-01-28T02:07:10;102751.94;;;19.15;42.88
68366;BME280;55283;51.466;5.478;2023-01-28T02:09:38;102743.53;;;19.12;43.05
68366;BME280;55283;51.466;5.478;2023-01-28T02:12:11;102749.91;;;19.12;42.98
68366;BME280;55283;51.466;5.478;2023-01-28T02:14:44;102750.34;;;19.14;43.00
68366;BME280;55283;51.466;5.478;2023-01-28T02:17:12;102755.09;;;19.14;42.90
68366;BME280;55283;51.466;5.478;2023-01-28T02:19:43;102752.28;;;19.14;42.96
68366;BME280;55283;51.466;5.478;2023-01-28T02:30:40;102752.28;;;19.10;42.98
68366;BME280;55283;51.466;5.478;2023-01-28T02:33:34;102752.28;;;19.10;43.04
68366;BME280;55283;51.466;5.478;2023-01-28T02:36:11;102747.88;;;19.09;42.83
68366;BME280;55283;51.466;5.478;2023-01-28T02:38:42;102746.69;;;19.10;42.87
68366;BME280;55283;51.466;5.478;2023-01-28T02:41:14;102750.25;;;19.07;43.04
68366;BME280;55283;51.466;5.478;2023-01-28T02:43:46;102745.41;;;19.00;43.01
68366;BME280;55283;51.466;5.478;2023-01-28T02:49:11;102753.03;;;19.07;42.84
68366;BME280;55283;51.466;5.478;2023-01-28T02:54:28;102750.69;;;19.09;42.96
68366;BME280;55283;51.466;5.478;2023-01-28T02:57:15;102752.25;;;19.07;42.84
68366;BME280;55283;51.466;5.478;2023-01-28T03:02:28;102761.84;;;19.06;42.90
68366;BME280;55283;51.466;5.478;2023-01-28T03:07:31;102762.56;;;19.03;43.06
68366;BME280;55283;51.466;5.478;2023-01-28T03:10:00;102764.56;;;19.02;43.19
68366;BME280;55283;51.466;5.478;2023-01-28T03:12:29;102768.94;;;18.99;43.17
68366;BME280;55283;51.466;5.478;2023-01-28T03:15:25;102771.72;;;18.99;43.09
68366;BME280;55283;51.466;5.478;2023-01-28T03:18:20;102764.19;;;19.00;43.00
68366;BME280;55283;51.466;5.478;2023-01-28T03:21:17;102772.94;;;18.98;43.02
68366;BME280;55283;51.466;5.478;2023-01-28T03:24:07;102764.56;;;18.98;43.20
68366;BME280;55283;51.466;5.478;2023-01-28T03:27:02;102755.38;;;18.98;43.28
68366;BME280;55283;51.466;5.478;2023-01-28T03:29:53;102766.53;;;18.98;43.45
68366;BME280;55283;51.466;5.478;2023-01-28T03:32:43;102762.56;;;18.99;43.21
68366;BME280;55283;51.466;5.478;2023-01-28T03:35:30;102769.78;;;19.00;43.06
68366;BME280;55283;51.466;5.478;2023-01-28T03:38:16;102772.16;;;19.02;43.18
68366;BME280;55283;51.466;5.478;2023-01-28T03:40:58;102775.75;;;19.02;43.18
68366;BME280;55283;51.466;5.478;2023-01-28T03:43:30;102775.38;;;19.04;43.06
68366;BME280;55283;51.466;5.478;2023-01-28T03:45:56;102774.59;;;19.03;42.97
68366;BME280;55283;51.466;5.478;2023-01-28T03:48:24;102788.97;;;19.05;43.21
68366;BME280;55283;51.466;5.478;2023-01-28T03:50:50;102779.41;;;19.06;43.01
68366;BME280;55283;51.466;5.478;2023-01-28T03:53:17;102773.00;;;19.06;43.16
68366;BME280;55283;51.466;5.478;2023-01-28T03:55:46;102767.03;;;19.07;43.08
68366;BME280;55283;51.466;5.478;2023-01-28T03:58:14;102770.63;;;19.08;43.04
68366;BME280;55283;51.466;5.478;2023-01-28T04:00:40;102762.63;;;19.06;42.96
68366;BME280;55283;51.466;5.478;2023-01-28T04:03:11;102767.03;;;19.07;43.04
68366;BME280;55283;51.466;5.478;2023-01-28T04:08:12;102773.84;;;19.10;42.93
68366;BME280;55283;51.466;5.478;2023-01-28T04:10:38;102780.19;;;19.07;43.01
68366;BME280;55283;51.466;5.478;2023-01-28T04:13:05;102776.63;;;19.06;43.11
68366;BME280;55283;51.466;5.478;2023-01-28T04:15:33;102786.59;;;19.07;43.10
68366;BME280;55283;51.466;5.478;2023-01-28T04:17:59;102792.97;;;19.08;42.95
68366;BME280;55283;51.466;5.478;2023-01-28T04:20:27;102789.81;;;19.09;43.04
68366;BME280;55283;51.466;5.478;2023-01-28T04:22:53;102787.38;;;19.08;43.10
68366;BME280;55283;51.466;5.478;2023-01-28T04:25:18;102785.41;;;19.08;42.99
68366;BME280;55283;51.466;5.478;2023-01-28T04:27:43;102786.16;;;19.05;42.94
68366;BME280;55283;51.466;5.478;2023-01-28T04:30:12;102784.19;;;19.06;42.95
68366;BME280;55283;51.466;5.478;2023-01-28T04:32:42;102784.56;;;19.04;43.01
68366;BME280;55283;51.466;5.478;2023-01-28T04:35:09;102790.16;;;19.04;42.99
68366;BME280;55283;51.466;5.478;2023-01-28T04:37:34;102790.16;;;19.04;42.92
68366;BME280;55283;51.466;5.478;2023-01-28T04:40:00;102786.16;;;19.05;42.96
68366;BME280;55283;51.466;5.478;2023-01-28T04:42:25;102784.19;;;19.06;43.00
68366;BME280;55283;51.466;5.478;2023-01-28T04:44:50;102783.38;;;19.05;42.92
68366;BME280;55283;51.466;5.478;2023-01-28T04:47:16;102781.78;;;19.04;42.72
68366;BME280;55283;51.466;5.478;2023-01-28T04:49:41;102781.34;;;19.02;43.07
68366;BME280;55283;51.466;5.478;2023-01-28T04:52:07;102783.34;;;19.02;43.11
68366;BME280;55283;51.466;5.478;2023-01-28T04:54:32;102790.16;;;19.04;43.22
68366;BME280;55283;51.466;5.478;2023-01-28T04:56:57;102789.72;;;19.02;42.91
68366;BME280;55283;51.466;5.478;2023-01-28T04:59:23;102784.13;;;19.02;43.00
68366;BME280;55283;51.466;5.478;2023-01-28T05:01:48;102783.75;;;19.00;43.11
68366;BME280;55283;51.466;5.478;2023-01-28T05:04:14;102781.75;;;19.00;43.20
68366;BME280;55283;51.466;5.478;2023-01-28T05:06:44;102791.31;;;18.99;43.17
68366;BME280;55283;51.466;5.478;2023-01-28T05:09:11;102787.72;;;18.99;43.05
68366;BME280;55283;51.466;5.478;2023-01-28T05:11:37;102788.09;;;18.97;43.00
68366;BME280;55283;51.466;5.478;2023-01-28T05:14:02;102793.28;;;18.99;43.22
68366;BME280;55283;51.466;5.478;2023-01-28T05:16:27;102794.09;;;18.99;43.24
68366;BME280;55283;51.466;5.478;2023-01-28T05:18:53;102798.13;;;19.02;43.12
68366;BME280;55283;51.466;5.478;2023-01-28T05:21:18;102792.53;;;19.02;43.00
68366;BME280;55283;51.466;5.478;2023-01-28T05:23:44;102788.97;;;19.05;43.10
68366;BME280;55283;51.466;5.478;2023-01-28T05:26:09;102797.34;;;19.05;43.00
68366;BME280;55283;51.466;5.478;2023-01-28T05:28:35;102796.97;;;19.07;43.08
68366;BME280;55283;51.466;5.478;2023-01-28T05:31:05;102792.19;;;19.07;43.11
68366;BME280;55283;51.466;5.478;2023-01-28T05:33:30;102796.97;;;19.07;43.00
68366;BME280;55283;51.466;5.478;2023-01-28T05:35:58;102790.19;;;19.08;42.95
68366;BME280;55283;51.466;5.478;2023-01-28T05:38:23;102788.19;;;19.08;42.96
68366;BME280;55283;51.466;5.478;2023-01-28T05:40:49;102789.38;;;19.07;43.04
68366;BME280;55283;51.466;5.478;2023-01-28T05:43:17;102784.19;;;19.06;43.25
68366;BME280;55283;51.466;5.478;2023-01-28T05:45:42;102784.59;;;19.08;43.08
68366;BME280;55283;51.466;5.478;2023-01-28T05:48:08;102782.22;;;19.10;43.16
68366;BME280;55283;51.466;5.478;2023-01-28T05:50:35;102793.44;;;19.13;43.05
68366;BME280;55283;51.466;5.478;2023-01-28T05:53:04;102785.47;;;19.15;43.09
68366;BME280;55283;51.466;5.478;2023-01-28T05:55:29;102785.84;;;19.14;42.99
68366;BME280;55283;51.466;5.478;2023-01-28T05:57:55;102792.66;;;19.16;43.10
68366;BME280;55283;51.466;5.478;2023-01-28T06:00:20;102796.69;;;19.19;43.01
68366;BME280;55283;51.466;5.478;2023-01-28T06:02:52;102800.28;;;19.19;42.81
68366;BME280;55283;51.466;5.478;2023-01-28T06:05:18;102798.69;;;19.18;43.01
68366;BME280;55283;51.466;5.478;2023-01-28T06:07:46;102802.69;;;19.17;42.88
68366;BME280;55283;51.466;5.478;2023-01-28T06:10:12;102800.69;;;19.18;43.03
68366;BME280;55283;51.466;5.478;2023-01-28T06:12:40;102802.69;;;19.17;43.03
68366;BME280;55283;51.466;5.478;2023-01-28T06:15:05;102801.84;;;19.17;42.99
68366;BME280;55283;51.466;5.478;2023-01-28T06:17:34;102802.69;;;19.17;42.91
68366;BME280;55283;51.466;5.478;2023-01-28T06:19:59;102805.47;;;19.17;42.98
68366;BME280;55283;51.466;5.478;2023-01-28T06:22:27;102809.44;;;19.16;42.90
68366;BME280;55283;51.466;5.478;2023-01-28T06:24:53;102809.44;;;19.16;42.90
68366;BME280;55283;51.466;5.478;2023-01-28T06:27:20;102806.25;;;19.14;43.07
68366;BME280;55283;51.466;5.478;2023-01-28T06:29:46;102809.84;;;19.15;43.05
68366;BME280;55283;51.466;5.478;2023-01-28T06:32:13;102814.22;;;19.16;43.09
68366;BME280;55283;51.466;5.478;2023-01-28T06:34:39;102819.41;;;19.14;43.14
68366;BME280;55283;51.466;5.478;2023-01-28T06:37:16;102804.97;;;19.08;43.40
68366;BME280;55283;51.466;5.478;2023-01-28T06:39:44;102812.16;;;19.06;43.54
68366;BME280;55283;51.466;5.478;2023-01-28T06:42:10;102812.53;;;19.04;43.38
68366;BME280;55283;51.466;5.478;2023-01-28T06:44:46;102807.28;;;18.99;43.79
68366;BME280;55283;51.466;5.478;2023-01-28T06:47:14;102810.94;;;19.03;44.00
68366;BME280;55283;51.466;5.478;2023-01-28T06:49:40;102819.31;;;19.03;44.10
68366;BME280;55283;51.466;5.478;2023-01-28T06:52:05;102823.66;;;19.00;44.13
68366;BME280;55283;51.466;5.478;2023-01-28T06:54:31;102830.44;;;18.99;44.55
68366;BME280;55283;51.466;5.478;2023-01-28T06:56:56;102821.34;;;19.06;44.11
68366;BME280;55283;51.466;5.478;2023-01-28T06:59:21;102824.28;;;19.20;44.52
68366;BME280;55283;51.466;5.478;2023-01-28T07:01:49;102817.50;;;19.25;44.10
68366;BME280;55283;51.466;5.478;2023-01-28T07:04:15;102827.56;;;19.33;43.98
68366;BME280;55283;51.466;5.478;2023-01-28T07:06:41;102821.94;;;19.30;44.92
68366;BME280;55283;51.466;5.478;2023-01-28T07:09:06;102817.97;;;19.34;45.39
68366;BME280;55283;51.466;5.478;2023-01-28T07:11:37;102825.59;;;19.37;45.10
68366;BME280;55283;51.466;5.478;2023-01-28T07:14:02;102837.22;;;19.39;44.93
68366;BME280;55283;51.466;5.478;2023-01-28T07:16:28;102833.19;;;19.37;45.27
68366;BME280;55283;51.466;5.478;2023-01-28T07:18:54;102831.03;;;19.19;43.69
68366;BME280;55283;51.466;5.478;2023-01-28T07:21:19;102833.44;;;19.17;44.60
68366;BME280;55283;51.466;5.478;2023-01-28T07:23:45;102837.06;;;19.21;43.49
68366;BME280;55283;51.466;5.478;2023-01-28T07:26:10;102835.53;;;19.31;43.83
68366;BME280;55283;51.466;5.478;2023-01-28T07:28:39;102839.63;;;19.41;43.75
68366;BME280;55283;51.466;5.478;2023-01-28T07:31:06;102838.38;;;19.35;44.34
68366;BME280;55283;51.466;5.478;2023-01-28T07:33:35;102847.59;;;19.39;44.52
68366;BME280;55283;51.466;5.478;2023-01-28T07:36:00;102853.88;;;19.29;44.69
68366;BME280;55283;51.466;5.478;2023-01-28T07:38:26;102846.66;;;19.24;44.81
68366;BME280;55283;51.466;5.478;2023-01-28T07:40:51;102853.03;;;19.21;44.79
68366;BME280;55283;51.466;5.478;2023-01-28T07:43:16;102851.81;;;19.18;45.03
68366;BME280;55283;51.466;5.478;2023-01-28T07:45:42;102854.59;;;19.18;45.05
68366;BME280;55283;51.466;5.478;2023-01-28T07:48:10;102863.75;;;19.15;44.92
68366;BME280;55283;51.466;5.478;2023-01-28T07:50:41;102852.94;;;19.14;45.09
68366;BME280;55283;51.466;5.478;2023-01-28T07:53:19;102861.75;;;19.16;45.21
68366;BME280;55283;51.466;5.478;2023-01-28T07:55:45;102869.34;;;19.15;45.21
68366;BME280;55283;51.466;5.478;2023-01-28T07:58:11;102868.53;;;19.15;45.08
68366;BME280;55283;51.466;5.478;2023-01-28T08:00:37;102867.34;;;19.16;45.01
68366;BME280;55283;51.466;5.478;2023-01-28T08:03:13;102874.50;;;19.13;45.04
68366;BME280;55283;51.466;5.478;2023-01-28T08:05:47;102877.31;;;19.13;45.01
68366;BME280;55283;51.466;5.478;2023-01-28T08:08:13;102882.47;;;19.11;45.05
68366;BME280;55283;51.466;5.478;2023-01-28T08:10:41;102877.28;;;19.10;45.18
68366;BME280;55283;51.466;5.478;2023-01-28T08:13:08;102878.88;;;19.11;45.03
68366;BME280;55283;51.466;5.478;2023-01-28T08:15:34;102872.06;;;19.08;45.08
68366;BME280;55283;51.466;5.478;2023-01-28T08:18:01;102879.28;;;19.09;45.08
68366;BME280;55283;51.466;5.478;2023-01-28T08:20:28;102891.63;;;19.08;45.29
68366;BME280;55283;51.466;5.478;2023-01-28T08:23:04;102898.41;;;19.07;45.17
68366;BME280;55283;51.466;5.478;2023-01-28T08:25:29;102900.00;;;19.08;45.32
68366;BME280;55283;51.466;5.478;2023-01-28T08:27:55;102910.03;;;19.09;45.23
68366;BME280;55283;51.466;5.478;2023-01-28T08:30:30;102900.44;;;19.10;45.10
68366;BME280;55283;51.466;5.478;2023-01-28T08:32:56;102901.22;;;19.11;45.05
68366;BME280;55283;51.466;5.478;2023-01-28T08:35:26;102902.41;;;19.06;45.12
68366;BME280;55283;51.466;5.478;2023-01-28T08:37:52;102911.16;;;19.05;45.07
68366;BME280;55283;51.466;5.478;2023-01-28T08:40:18;102916.75;;;19.05;44.11
68366;BME280;55283;51.466;5.478;2023-01-28T08:42:53;102918.78;;;19.08;44.71
68366;BME280;55283;51.466;5.478;2023-01-28T08:45:24;102927.63;;;19.13;44.87
68366;BME280;55283;51.466;5.478;2023-01-28T08:47:55;102928.78;;;19.09;44.75
68366;BME280;55283;51.466;5.478;2023-01-28T08:50:22;102922.03;;;19.13;44.83
68366;BME280;55283;51.466;5.478;2023-01-28T08:52:48;102924.81;;;19.13;44.12
68366;BME280;55283;51.466;5.478;2023-01-28T08:55:21;102930.41;;;19.13;44.54
68366;BME280;55283;51.466;5.478;2023-01-28T08:57:49;102920.81;;;19.11;44.84
68366;BME280;55283;51.466;5.478;2023-01-28T09:00:15;102937.06;;;19.02;45.39
68366;BME280;55283;51.466;5.478;2023-01-28T09:02:43;102945.50;;;19.05;45.38
68366;BME280;55283;51.466;5.478;2023-01-28T09:05:09;102940.72;;;19.06;45.06
68366;BME280;55283;51.466;5.478;2023-01-28T09:07:35;102935.94;;;19.06;45.17
68366;BME280;55283;51.466;5.478;2023-01-28T09:10:01;102927.97;;;19.08;45.06
68366;BME280;55283;51.466;5.478;2023-01-28T09:12:30;102932.75;;;19.08;45.13
68366;BME280;55283;51.466;5.478;2023-01-28T09:14:55;102936.34;;;19.08;45.01
68366;BME280;55283;51.466;5.478;2023-01-28T09:17:21;102947.94;;;19.07;45.13
68366;BME280;55283;51.466;5.478;2023-01-28T09:19:49;102955.50;;;19.06;45.08
68366;BME280;55283;51.466;5.478;2023-01-28T09:22:15;102939.91;;;19.05;45.09
68366;BME280;55283;51.466;5.478;2023-01-28T09:24:40;102943.84;;;19.00;45.32
68366;BME280;55283;51.466;5.478;2023-01-28T09:27:06;102951.09;;;19.05;45.40
68366;BME280;55283;51.466;5.478;2023-01-28T09:29:34;102949.06;;;19.02;45.16
68366;BME280;55283;51.466;5.478;2023-01-28T09:32:03;102959.84;;;19.00;45.35
68366;BME280;55283;51.466;5.478;2023-01-28T09:34:29;102964.22;;;19.01;44.98
68366;BME280;55283;51.466;5.478;2023-01-28T09:36:54;102953.47;;;19.03;44.95
68366;BME280;55283;51.466;5.478;2023-01-28T09:39:19;102953.03;;;19.01;45.49
68366;BME280;55283;51.466;5.478;2023-01-28T09:47:40;102961.44;;;19.01;44.61
68366;BME280;55283;51.466;5.478;2023-01-28T09:50:14;102957.44;;;19.02;44.90
68366;BME280;55283;51.466;5.478;2023-01-28T09:52:40;102972.97;;;18.99;45.28
68366;BME280;55283;51.466;5.478;2023-01-28T09:57:49;102955.06;;;19.04;45.12
68366;BME280;55283;51.466;5.478;2023-01-28T10:00:17;102971.84;;;19.04;44.96
68366;BME280;55283;51.466;5.478;2023-01-28T10:06:25;102981.44;;;19.03;45.00
68366;BME280;55283;51.466;5.478;2023-01-28T10:08:40;102967.06;;;19.05;44.92
68366;BME280;55283;51.466;5.478;2023-01-28T10:14:56;102974.28;;;19.06;45.20
68366;BME280;55283;51.466;5.478;2023-01-28T10:17:30;102981.38;;;18.99;45.10
68366;BME280;55283;51.466;5.478;2023-01-28T10:22:38;102987.34;;;18.98;45.13
68366;BME280;55283;51.466;5.478;2023-01-28T10:25:17;102996.94;;;18.97;45.11
68366;BME280;55283;51.466;5.478;2023-01-28T10:27:43;102985.34;;;18.98;44.79
68366;BME280;55283;51.466;5.478;2023-01-28T10:30:28;102987.34;;;18.98;45.07
68366;BME280;55283;51.466;5.478;2023-01-28T10:33:09;102990.94;;;18.98;45.05
68366;BME280;55283;51.466;5.478;2023-01-28T10:35:40;102989.75;;;18.99;45.02
68366;BME280;55283;51.466;5.478;2023-01-28T10:38:13;102969.78;;;18.97;45.07
68366;BME280;55283;51.466;5.478;2023-01-28T10:40:42;102971.00;;;19.00;45.05
68366;BME280;55283;51.466;5.478;2023-01-28T10:43:08;102977.38;;;18.97;45.14
68366;BME280;55283;51.466;5.478;2023-01-28T10:45:39;102977.41;;;19.00;45.17
68366;BME280;55283;51.466;5.478;2023-01-28T10:48:14;102976.53;;;18.96;45.05
68366;BME280;55283;51.466;5.478;2023-01-28T10:50:55;102979.72;;;18.95;45.27
68366;BME280;55283;51.466;5.478;2023-01-28T10:53:40;102980.19;;;19.00;45.12
68366;BME280;55283;51.466;5.478;2023-01-28T10:56:13;102971.00;;;19.00;45.12
68366;BME280;55283;51.466;5.478;2023-01-28T10:59:00;102975.38;;;18.97;45.17
68366;BME280;55283;51.466;5.478;2023-01-28T11:04:04;102978.91;;;18.94;45.32
68366;BME280;55283;51.466;5.478;2023-01-28T11:06:30;102990.09;;;18.94;45.48
68366;BME280;55283;51.466;5.478;2023-01-28T11:08:56;102976.16;;;18.98;45.33
68366;BME280;55283;51.466;5.478;2023-01-28T11:11:26;102971.84;;;19.04;45.06
68366;BME280;55283;51.466;5.478;2023-01-28T11:13:54;102978.66;;;19.07;45.04
68366;BME280;55283;51.466;5.478;2023-01-28T11:16:27;102983.00;;;19.00;45.37
68366;BME280;55283;51.466;5.478;2023-01-28T11:19:01;102983.69;;;18.94;45.43
68366;BME280;55283;51.466;5.478;2023-01-28T11:21:31;102980.97;;;18.97;45.51
68366;BME280;55283;51.466;5.478;2023-01-28T11:24:00;102977.38;;;18.97;45.51
68366;BME280;55283;51.466;5.478;2023-01-28T11:26:29;102963.78;;;18.99;45.50
68366;BME280;55283;51.466;5.478;2023-01-28T11:28:57;102954.28;;;19.04;45.55
68366;BME280;55283;51.466;5.478;2023-01-28T11:31:23;102953.09;;;19.05;45.54
68366;BME280;55283;51.466;5.478;2023-01-28T11:33:57;102950.25;;;19.01;45.64
68366;BME280;55283;51.466;5.478;2023-01-28T11:36:26;102945.00;;;18.96;46.04
68366;BME280;55283;51.466;5.478;2023-01-28T11:38:55;102942.22;;;18.99;45.93
68366;BME280;55283;51.466;5.478;2023-01-28T11:41:34;102933.94;;;19.07;46.18
68366;BME280;55283;51.466;5.478;2023-01-28T11:44:22;102945.16;;;19.10;46.00
68366;BME280;55283;51.466;5.478;2023-01-28T11:49:29;102925.25;;;19.15;45.92
68366;BME280;55283;51.466;5.478;2023-01-28T11:52:22;102923.66;;;19.14;45.98
68366;BME280;55283;51.466;5.478;2023-01-28T11:55:17;102920.00;;;19.10;45.92
68366;BME280;55283;51.466;5.478;2023-01-28T12:09:24;102866.91;;;19.14;45.71
68366;BME280;55283;51.466;5.478;2023-01-28T12:15:08;102845.78;;;19.16;45.16
68366;BME280;55283;51.466;5.478;2023-01-28T12:17:57;102843.41;;;19.18;45.25
68366;BME280;55283;51.466;5.478;2023-01-28T12:23:52;102841.91;;;19.28;45.60
68366;BME280;55283;51.466;5.478;2023-01-28T12:34:59;102856.00;;;19.42;45.68
68366;BME280;55283;51.466;5.478;2023-01-28T12:38:07;102858.06;;;19.49;45.59
68366;BME280;55283;51.466;5.478;2023-01-28T12:40:53;102862.50;;;19.50;45.29
68366;BME280;55283;51.466;5.478;2023-01-28T12:43:36;102871.66;;;19.47;45.71
68366;BME280;55283;51.466;5.478;2023-01-28T12:46:29;102879.09;;;19.32;45.11
68366;BME280;55283;51.466;5.478;2023-01-28T12:49:16;102899.53;;;19.40;45.43
68366;BME280;55283;51.466;5.478;2023-01-28T12:52:14;102897.94;;;19.39;44.46
68366;BME280;55283;51.466;5.478;2023-01-28T12:55:28;102889.56;;;19.39;45.01
68366;BME280;55283;51.466;5.478;2023-01-28T12:57:30;102900.31;;;19.37;44.86
68366;BME280;55283;51.466;5.478;2023-01-28T13:02:35;102912.28;;;19.37;45.16
68366;BME280;55283;51.466;5.478;2023-01-28T13:05:09;102898.00;;;19.46;45.42
68366;BME280;55283;51.466;5.478;2023-01-28T13:07:58;102900.41;;;19.48;45.20
68366;BME280;55283;51.466;5.478;2023-01-28T13:10:41;102898.88;;;19.54;45.00
68366;BME280;55283;51.466;5.478;2023-01-28T13:15:56;102880.84;;;19.48;44.71
68366;BME280;55283;51.466;5.478;2023-01-28T13:24:35;102892.25;;;19.32;43.61
68366;BME280;55283;51.466;5.478;2023-01-28T13:26:56;102889.09;;;19.33;43.67
68366;BME280;55283;51.466;5.478;2023-01-28T13:29:32;102883.50;;;19.33;44.07
68366;BME280;55283;51.466;5.478;2023-01-28T13:32:01;102892.72;;;19.37;44.20
68366;BME280;55283;51.466;5.478;2023-01-28T13:34:40;102887.94;;;19.38;44.29
68366;BME280;55283;51.466;5.478;2023-01-28T13:37:31;102879.16;;;19.39;44.31
68366;BME280;55283;51.466;5.478;2023-01-28T13:42:31;102886.34;;;19.40;44.40
68366;BME280;55283;51.466;5.478;2023-01-28T13:45:19;102879.19;;;19.43;44.29
68366;BME280;55283;51.466;5.478;2023-01-28T13:47:48;102866.44;;;19.45;44.31
68366;BME280;55283;51.466;5.478;2023-01-28T13:50:20;102858.50;;;19.51;44.32
68366;BME280;55283;51.466;5.478;2023-01-28T13:53:16;102858.13;;;19.53;44.08
68366;BME280;55283;51.466;5.478;2023-01-28T13:55:45;102851.66;;;19.45;44.34
68366;BME280;55283;51.466;5.478;2023-01-28T14:01:20;102844.81;;;19.42;44.57
68366;BME280;55283;51.466;5.478;2023-01-28T14:07:09;102826.81;;;19.40;44.74
68366;BME280;55283;51.466;5.478;2023-01-28T14:10:06;102825.22;;;19.39;44.41
68366;BME280;55283;51.466;5.478;2023-01-28T14:12:40;102815.25;;;19.38;44.63
68366;BME280;55283;51.466;5.478;2023-01-28T14:17:59;102815.63;;;19.40;44.53
68366;BME280;55283;51.466;5.478;2023-01-28T14:20:32;102824.03;;;19.40;44.54
68366;BME280;55283;51.466;5.478;2023-01-28T14:23:04;102826.03;;;19.39;44.64
68366;BME280;55283;51.466;5.478;2023-01-28T14:25:38;102818.84;;;19.38;44.75
68366;BME280;55283;51.466;5.478;2023-01-28T14:28:18;102828.00;;;19.35;44.50
68366;BME280;55283;51.466;5.478;2023-01-28T14:31:15;102831.56;;;19.32;44.79
68366;BME280;55283;51.466;5.478;2023-01-28T14:33:38;102832.84;;;19.42;44.58
68366;BME280;55283;51.466;5.478;2023-01-28T14:36:10;102845.22;;;19.41;44.66
68366;BME280;55283;51.466;5.478;2023-01-28T14:38:39;102846.81;;;19.42;44.26
68366;BME280;55283;51.466;5.478;2023-01-28T14:41:06;102850.81;;;19.41;44.44
68366;BME280;55283;51.466;5.478;2023-01-28T14:43:32;102834.03;;;19.41;44.72